Time;durP1;ratioP1;P1;durP2;ratioP2;P2;SDS_P1;SDS_P2;PMS_P1;PMS_P2;Temp;Humidity;BMP_temperature;BMP_pressure;BME280_temperature;BME280_humidity;BME280_pressure;Samples;Min_cycle;Max_cycle;Signal;HPM_P1;HPM_P2
2023/08/25 00:02:09;;;;;;;32.25;21.52;;;;;;;17.66;100.00;100873.25;5075431;28;20464;-69
2023/08/25 00:04:35;;;;;;;31.67;20.98;;;;;;;17.68;100.00;100875.88;5075605;28;20029;-72
2023/08/25 00:07:00;;;;;;;32.35;20.77;;;;;;;17.67;100.00;100880.38;5075497;28;20017;-71
2023/08/25 00:09:26;;;;;;;32.15;21.45;;;;;;;17.68;100.00;100887.47;5075262;28;20515;-72
2023/08/25 00:11:51;;;;;;;32.20;21.35;;;;;;;17.67;100.00;100883.03;5075210;28;20048;-72
2023/08/25 00:14:16;;;;;;;31.77;22.48;;;;;;;17.65;100.00;100879.53;5075653;28;20028;-65
2023/08/25 00:16:42;;;;;;;34.08;22.02;;;;;;;17.63;100.00;100884.03;5075211;28;20102;-66
2023/08/25 00:19:07;;;;;;;31.40;22.15;;;;;;;17.58;100.00;100878.78;5075059;28;20032;-73
2023/08/25 00:21:33;;;;;;;32.83;21.95;;;;;;;17.62;100.00;100886.75;5075285;28;20021;-73
2023/08/25 00:23:58;;;;;;;31.50;20.95;;;;;;;17.48;100.00;100889.75;5074589;28;20379;-69
2023/08/25 00:26:23;;;;;;;31.67;21.27;;;;;;;17.50;100.00;100895.94;5075123;28;20031;-69
2023/08/25 00:28:49;;;;;;;32.28;21.42;;;;;;;17.47;100.00;100885.31;5075276;28;20138;-64
2023/08/25 00:31:14;;;;;;;33.03;22.70;;;;;;;17.46;100.00;100883.56;5074940;28;20016;-69
2023/08/25 00:33:50;;;;;;;32.83;22.38;;;;;;;17.41;100.00;100895.22;5075013;28;20094;-66
2023/08/25 00:36:16;;;;;;;31.25;21.08;;;;;;;17.41;100.00;100895.22;5070961;28;20025;-68
2023/08/25 00:38:41;;;;;;;31.23;21.02;;;;;;;17.24;100.00;100897.41;5074628;28;20479;-67
2023/08/25 00:41:07;;;;;;;32.15;20.95;;;;;;;17.30;100.00;100894.63;5075011;28;20410;-72
2023/08/25 00:43:33;;;;;;;31.50;21.17;;;;;;;17.30;100.00;100891.94;5074530;28;20031;-71
2023/08/25 00:46:00;;;;;;;31.85;21.08;;;;;;;17.31;100.00;100892.81;5074606;28;20020;-68
2023/08/25 00:48:27;;;;;;;35.75;23.23;;;;;;;17.22;100.00;100893.91;5074954;28;20058;-64
2023/08/25 00:50:53;;;;;;;30.23;20.92;;;;;;;17.19;100.00;100888.63;5074548;28;20024;-69
2023/08/25 00:53:21;;;;;;;36.88;21.65;;;;;;;17.11;100.00;100890.56;5074564;28;20124;-63
2023/08/25 00:55:47;;;;;;;31.48;21.38;;;;;;;17.14;100.00;100886.06;5070609;28;20021;-61
2023/08/25 00:58:14;;;;;;;31.70;21.20;;;;;;;17.16;100.00;100881.56;5074382;28;20186;-63
2023/08/25 01:00:40;;;;;;;31.05;21.30;;;;;;;17.24;100.00;100887.63;5074292;28;20041;-73
2023/08/25 01:03:06;;;;;;;34.25;21.33;;;;;;;17.17;100.00;100890.44;5074441;28;20086;-73
2023/08/25 01:05:32;;;;;;;40.83;22.13;;;;;;;17.18;100.00;100881.53;5074272;28;20460;-73
2023/08/25 01:07:57;;;;;;;32.10;22.25;;;;;;;17.21;100.00;100884.13;5074078;28;20031;-69
2023/08/25 01:10:30;;;;;;;34.80;22.02;;;;;;;17.12;100.00;100890.53;5072792;28;20040;-73
2023/08/25 01:13:10;;;;;;;30.52;20.73;;;;;;;17.19;100.00;100893.97;5074273;28;20530;-73
2023/08/25 01:15:41;;;;;;;32.75;20.27;;;;;;;17.12;100.00;100887.88;5074072;28;20025;-73
2023/08/25 01:18:22;;;;;;;30.35;20.02;;;;;;;17.08;100.00;100887.06;5074142;28;20431;-70
2023/08/25 01:20:48;;;;;;;29.75;20.23;;;;;;;17.10;100.00;100881.69;5073988;28;20165;-70
2023/08/25 01:23:47;;;;;;;38.17;22.42;;;;;;;17.01;100.00;100874.78;5074028;28;20111;-70
2023/08/25 01:26:13;;;;;;;39.40;22.83;;;;;;;17.00;100.00;100870.34;5073181;28;20021;-71
2023/08/25 01:28:41;;;;;;;31.38;20.63;;;;;;;16.96;100.00;100876.66;5073961;28;20116;-70
2023/08/25 01:31:07;;;;;;;41.20;21.35;;;;;;;16.97;100.00;100875.75;5089390;28;20169;-70
2023/08/25 01:33:33;;;;;;;30.52;21.30;;;;;;;17.00;100.00;100875.69;5073537;28;20024;-70
2023/08/25 01:36:23;;;;;;;29.90;21.50;;;;;;;16.95;100.00;100871.34;5072953;28;20082;-70
2023/08/25 01:39:04;;;;;;;30.42;20.10;;;;;;;16.98;100.00;100868.59;5069984;28;20036;-70
2023/08/25 01:41:41;;;;;;;29.35;18.98;;;;;;;16.93;100.00;100866.03;5071294;28;20039;-70
2023/08/25 01:44:07;;;;;;;28.15;19.45;;;;;;;16.95;100.00;100864.22;5073726;28;20028;-70
2023/08/25 01:46:35;;;;;;;33.63;19.40;;;;;;;16.99;100.00;100865.91;5073338;28;20051;-70
2023/08/25 01:49:02;;;;;;;38.63;19.95;;;;;;;17.00;100.00;100859.66;5073351;28;20030;-70
2023/08/25 01:51:29;;;;;;;35.22;21.25;;;;;;;16.97;100.00;100864.19;5073557;28;20112;-70
2023/08/25 01:53:55;;;;;;;32.08;20.92;;;;;;;17.07;100.00;100861.28;5073276;28;20475;-70
2023/08/25 01:56:22;;;;;;;31.80;20.77;;;;;;;17.13;100.00;100862.06;5073227;28;20067;-70
2023/08/25 01:58:48;;;;;;;32.63;21.73;;;;;;;17.19;100.00;100853.91;5069320;28;20035;-70
2023/08/25 02:01:13;;;;;;;33.75;22.23;;;;;;;17.15;100.00;100849.53;5073372;28;20029;-70
2023/08/25 02:03:38;;;;;;;32.60;21.70;;;;;;;17.24;100.00;100855.56;5073540;28;20028;-69
2023/08/25 02:06:04;;;;;;;34.47;23.13;;;;;;;17.22;100.00;100837.81;5073036;28;20471;-70
2023/08/25 02:08:29;;;;;;;33.25;23.27;;;;;;;17.24;100.00;100844.88;5073047;28;20035;-70
2023/08/25 02:10:54;;;;;;;35.38;23.65;;;;;;;17.21;100.00;100844.94;5073012;28;20131;-67
2023/08/25 02:13:20;;;;;;;33.97;22.75;;;;;;;17.25;100.00;100841.25;5072985;28;20118;-72
2023/08/25 02:15:48;;;;;;;35.38;24.02;;;;;;;17.25;100.00;100841.25;5072905;28;20032;-73
2023/08/25 02:18:14;;;;;;;36.13;25.38;;;;;;;17.28;100.00;100840.31;5072933;28;20038;-68
2023/08/25 02:20:40;;;;;;;41.13;26.65;;;;;;;17.27;100.00;100838.59;5072732;28;20123;-64
2023/08/25 02:23:06;;;;;;;39.00;25.95;;;;;;;17.27;100.00;100837.69;5072872;28;20029;-73
2023/08/25 02:25:32;;;;;;;36.83;24.92;;;;;;;17.27;100.00;100833.25;5073003;28;20375;-72
2023/08/25 02:27:57;;;;;;;36.00;24.23;;;;;;;17.28;100.00;100829.63;5073062;28;20028;-73
2023/08/25 02:30:23;;;;;;;36.55;25.08;;;;;;;17.32;100.00;100835.81;5072697;28;20029;-72
2023/08/25 02:32:48;;;;;;;35.90;24.77;;;;;;;17.33;100.00;100832.19;5072980;28;20032;-72
2023/08/25 02:35:13;;;;;;;37.78;26.50;;;;;;;17.29;100.00;100828.72;5072740;28;20135;-71
2023/08/25 02:37:56;;;;;;;42.45;28.73;;;;;;;17.34;100.00;100818.78;5072883;28;20051;-72
2023/08/25 02:40:22;;;;;;;38.40;27.10;;;;;;;17.35;100.00;100806.34;5069145;28;20021;-73
2023/08/25 02:42:47;;;;;;;39.08;27.13;;;;;;;17.37;100.00;100802.72;5072913;28;20073;-73
2023/08/25 02:45:13;;;;;;;40.10;27.05;;;;;;;17.41;100.00;100808.84;5072792;28;20483;-73
2023/08/25 02:47:38;;;;;;;39.70;27.25;;;;;;;17.38;100.00;100804.47;5072530;28;20073;-70
2023/08/25 02:50:04;;;;;;;39.10;26.15;;;;;;;17.42;100.00;100799.94;5072512;28;20032;-69
2023/08/25 02:52:29;;;;;;;37.22;26.50;;;;;;;17.42;100.00;100795.44;5072565;28;20028;-73
2023/08/25 02:54:54;;;;;;;39.38;27.23;;;;;;;17.41;100.00;100793.69;5072620;28;20031;-69
2023/08/25 02:57:20;;;;;;;39.63;27.70;;;;;;;17.43;100.00;100797.22;5072711;28;20032;-72
2023/08/25 02:59:45;;;;;;;41.70;29.83;;;;;;;17.46;100.00;100790.03;5072361;28;20471;-71
2023/08/25 03:02:10;;;;;;;40.35;28.48;;;;;;;17.49;100.00;100785.50;5072837;28;20459;-68
2023/08/25 03:04:36;;;;;;;41.75;29.83;;;;;;;17.48;100.00;100777.53;5072469;28;20387;-69
2023/08/25 03:07:01;;;;;;;44.03;30.23;;;;;;;17.50;100.00;100778.34;5072249;28;20036;-69
2023/08/25 03:09:27;;;;;;;41.50;29.85;;;;;;;17.50;100.00;100765.00;5072792;28;20029;-66
2023/08/25 03:11:52;;;;;;;44.35;30.38;;;;;;;17.50;100.00;100767.66;5070898;28;20064;-67
2023/08/25 03:14:18;;;;;;;43.25;30.70;;;;;;;17.55;100.00;100771.13;5072250;28;20040;-68
2023/08/25 03:16:44;;;;;;;43.58;30.80;;;;;;;17.57;100.00;100761.25;5072496;28;20020;-68
2023/08/25 03:19:09;;;;;;;46.15;32.22;;;;;;;17.55;100.00;100761.28;5072349;28;20029;-67
2023/08/25 03:21:35;;;;;;;45.30;32.03;;;;;;;17.60;100.00;100764.72;5072643;28;20050;-68
2023/08/25 03:24:00;;;;;;;46.50;32.67;;;;;;;17.59;100.00;100757.63;5072263;28;20043;-68
2023/08/25 03:26:26;;;;;;;45.63;31.63;;;;;;;17.63;100.00;100755.72;5072074;28;20503;-68
2023/08/25 03:28:52;;;;;;;46.92;32.88;;;;;;;17.59;100.00;100749.59;5072391;28;20033;-68
2023/08/25 03:31:17;;;;;;;45.80;32.03;;;;;;;17.63;100.00;100745.03;5072176;28;20115;-66
2023/08/25 03:33:43;;;;;;;49.53;33.67;;;;;;;17.57;100.00;100751.41;5072013;28;20135;-68
2023/08/25 03:36:08;;;;;;;49.03;33.65;;;;;;;17.56;100.00;100748.78;5072301;28;20025;-68
2023/08/25 03:38:33;;;;;;;52.05;35.70;;;;;;;17.55;100.00;100739.03;5071963;28;20032;-68
2023/08/25 03:40:59;;;;;;;49.67;34.92;;;;;;;17.58;100.00;100738.97;5072102;28;20037;-68
2023/08/25 03:43:25;;;;;;;51.22;35.72;;;;;;;17.60;100.00;100735.34;5072229;28;20063;-68
2023/08/25 03:45:50;;;;;;;47.80;33.92;;;;;;;17.63;100.00;100726.34;5072161;28;20024;-68
2023/08/25 03:48:16;;;;;;;49.70;34.20;;;;;;;17.67;100.00;100722.66;5071936;28;20028;-68
2023/08/25 03:50:46;;;;;;;51.80;34.75;;;;;;;17.65;100.00;100736.97;5072094;28;20062;-68
2023/08/25 03:53:11;;;;;;;50.15;35.33;;;;;;;17.64;100.00;100730.78;5071972;28;20029;-66
2023/08/25 03:55:36;;;;;;;50.08;35.72;;;;;;;17.63;100.00;100726.34;5071913;28;20039;-68
2023/08/25 03:58:02;;;;;;;49.38;34.45;;;;;;;17.63;100.00;100729.00;5072018;28;20028;-68
2023/08/25 04:00:27;;;;;;;47.55;33.53;;;;;;;17.64;100.00;100730.78;5075112;28;20085;-67
2023/08/25 04:02:52;;;;;;;49.10;33.90;;;;;;;17.60;100.00;100732.66;5074115;28;20032;-67
2023/08/25 04:05:18;;;;;;;46.80;33.92;;;;;;;17.62;100.00;100723.69;5075629;28;20032;-72
2023/08/25 04:07:43;;;;;;;47.00;33.67;;;;;;;17.66;100.00;100726.25;5075365;28;20112;-71
2023/08/25 04:10:09;;;;;;;49.88;35.28;;;;;;;17.66;100.00;100728.91;5075476;28;20052;-72
2023/08/25 04:12:34;;;;;;;49.70;34.35;;;;;;;17.67;100.00;100728.00;5075275;28;20466;-71
2023/08/25 04:14:59;;;;;;;50.00;34.80;;;;;;;17.63;100.00;100728.13;5075265;28;20108;-71
2023/08/25 04:17:25;;;;;;;49.05;34.47;;;;;;;17.61;100.00;100722.84;5075271;28;20532;-72
2023/08/25 04:19:50;;;;;;;48.75;34.17;;;;;;;17.63;100.00;100720.13;5075064;28;20040;-69
2023/08/25 04:22:15;;;;;;;50.05;34.40;;;;;;;17.61;100.00;100709.47;5075015;28;20032;-69
2023/08/25 04:24:41;;;;;;;49.75;33.33;;;;;;;17.57;100.00;100715.81;5075255;28;20082;-71
2023/08/25 04:27:06;;;;;;;47.35;33.55;;;;;;;17.56;100.00;100703.38;5075029;28;20033;-70
2023/08/25 04:29:32;;;;;;;49.88;34.15;;;;;;;17.57;100.00;100719.34;5074930;28;20108;-72
2023/08/25 04:31:57;;;;;;;49.47;34.58;;;;;;;17.54;100.00;100714.09;5075139;28;20031;-72
2023/08/25 04:34:22;;;;;;;49.30;34.63;;;;;;;17.55;100.00;100715.00;5074844;28;20380;-71
2023/08/25 04:36:48;;;;;;;47.53;34.05;;;;;;;17.57;100.00;100713.16;5074777;28;20021;-72
2023/08/25 04:39:13;;;;;;;47.65;34.03;;;;;;;17.53;100.00;100716.81;5074842;28;20087;-68
2023/08/25 04:41:40;;;;;;;48.95;33.47;;;;;;;17.56;100.00;100714.06;5074644;28;20053;-72
2023/08/25 04:44:06;;;;;;;50.42;34.45;;;;;;;17.57;100.00;100723.84;5074743;28;20074;-62
2023/08/25 04:46:31;;;;;;;49.42;33.65;;;;;;;17.54;100.00;100731.94;5074719;28;20078;-72
2023/08/25 04:48:57;;;;;;;48.70;33.75;;;;;;;17.54;100.00;100729.25;5074595;28;20028;-72
2023/08/25 04:51:22;;;;;;;46.90;33.28;;;;;;;17.54;100.00;100724.78;5074987;28;20423;-67
2023/08/25 04:53:47;;;;;;;46.88;33.85;;;;;;;17.58;100.00;100712.22;5074735;28;20033;-66
2023/08/25 04:56:13;;;;;;;48.50;34.33;;;;;;;17.60;100.00;100713.06;5074372;28;20037;-69
2023/08/25 04:58:38;;;;;;;50.03;34.55;;;;;;;17.60;100.00;100710.38;5074815;28;20021;-71
2023/08/25 05:01:04;;;;;;;47.00;32.95;;;;;;;17.61;100.00;100701.47;5074349;28;20025;-72
2023/08/25 05:03:29;;;;;;;47.22;33.97;;;;;;;17.58;100.00;100704.22;5074322;28;20468;-72
2023/08/25 05:05:54;;;;;;;45.45;33.08;;;;;;;17.56;100.00;100698.00;5074416;28;20067;-72
2023/08/25 05:08:20;;;;;;;44.53;32.25;;;;;;;17.57;100.00;100695.31;5074195;28;20032;-72
2023/08/25 05:10:46;;;;;;;46.20;32.03;;;;;;;17.54;100.00;100694.53;5073956;28;20052;-72
2023/08/25 05:13:11;;;;;;;46.40;32.22;;;;;;;17.58;100.00;100686.38;5074303;28;20041;-70
2023/08/25 05:15:37;;;;;;;44.90;32.10;;;;;;;17.52;100.00;100691.91;5074369;28;20495;-68
2023/08/25 05:18:02;;;;;;;45.90;32.08;;;;;;;17.51;100.00;100697.28;5073904;28;20356;-71
2023/08/25 05:20:28;;;;;;;42.95;31.63;;;;;;;17.52;100.00;100693.69;5074031;28;20107;-66
2023/08/25 05:22:53;;;;;;;42.63;30.15;;;;;;;17.57;100.00;100697.09;5073970;28;20490;-68
2023/08/25 05:25:21;;;;;;;42.50;30.25;;;;;;;17.60;100.00;100699.69;5044410;28;20033;-68
2023/08/25 05:27:47;;;;;;;42.42;30.90;;;;;;;17.60;100.00;100697.91;5073717;28;20037;-67
2023/08/25 05:30:13;;;;;;;42.42;30.83;;;;;;;17.63;100.00;100699.59;5073751;28;20523;-66
2023/08/25 05:32:38;;;;;;;42.03;29.63;;;;;;;17.73;100.00;100719.81;5073822;28;20111;-68
2023/08/25 05:35:04;;;;;;;42.33;29.55;;;;;;;17.89;100.00;100717.59;5073709;28;20479;-68
2023/08/25 05:37:29;;;;;;;41.35;30.05;;;;;;;17.95;100.00;100705.88;5073725;28;20032;-67
2023/08/25 05:39:55;;;;;;;38.90;28.35;;;;;;;17.98;100.00;100692.44;5073671;28;20028;-67
2023/08/25 05:42:20;;;;;;;38.28;27.42;;;;;;;18.07;100.00;100701.97;5073601;28;20597;-68
2023/08/25 05:44:46;;;;;;;37.00;26.35;;;;;;;18.16;100.00;100692.81;5073409;28;20020;-68
2023/08/25 05:47:11;;;;;;;36.70;26.10;;;;;;;18.20;100.00;100691.81;5073919;28;20047;-67
2023/08/25 05:49:36;;;;;;;33.90;25.38;;;;;;;18.18;100.00;100699.00;5073342;28;20056;-68
2023/08/25 05:52:02;;;;;;;33.28;24.83;;;;;;;18.17;100.00;100694.56;5073328;28;20024;-68
2023/08/25 05:54:27;;;;;;;32.47;24.33;;;;;;;18.17;100.00;100683.88;5073566;28;20383;-67
2023/08/25 05:56:56;;;;;;;32.40;23.55;;;;;;;18.17;100.00;100674.03;5073275;28;20025;-67
2023/08/25 05:59:21;;;;;;;31.45;22.85;;;;;;;18.24;100.00;100680.09;5069371;28;20492;-68
2023/08/25 06:01:47;;;;;;;31.13;22.00;;;;;;;18.22;100.00;100681.94;5073401;28;20059;-68
2023/08/25 06:04:12;;;;;;;31.20;22.20;;;;;;;18.18;100.00;100677.63;5073237;28;20093;-67
2023/08/25 06:06:38;;;;;;;29.75;21.42;;;;;;;18.16;100.00;100679.44;5076168;28;20414;-65
2023/08/25 06:09:05;;;;;;;30.15;21.38;;;;;;;18.10;100.00;100669.78;5073045;28;20052;-65
2023/08/25 06:11:30;;;;;;;32.05;22.38;;;;;;;18.07;100.00;100665.44;5072626;28;20072;-67
2023/08/25 06:13:55;;;;;;;31.15;21.90;;;;;;;18.08;100.00;100677.00;5072776;28;20423;-65
2023/08/25 06:16:21;;;;;;;31.13;21.40;;;;;;;18.08;100.00;100672.50;5072448;28;20045;-67
2023/08/25 06:18:46;;;;;;;30.40;20.88;;;;;;;18.05;100.00;100667.25;5072674;28;20106;-67
2023/08/25 06:21:12;;;;;;;30.23;21.38;;;;;;;18.03;100.00;100678.94;5072521;28;20510;-67
2023/08/25 06:23:37;;;;;;;32.72;21.58;;;;;;;18.01;100.00;100688.78;5072569;28;20025;-66
2023/08/25 06:26:02;;;;;;;30.88;20.52;;;;;;;18.00;100.00;100681.69;5072924;28;20074;-67
2023/08/25 06:28:28;;;;;;;30.65;21.27;;;;;;;18.00;100.00;100689.72;5072503;28;20106;-68
2023/08/25 06:30:53;;;;;;;29.23;20.50;;;;;;;17.98;100.00;100702.25;5072650;28;20032;-61
2023/08/25 06:33:18;;;;;;;29.67;20.33;;;;;;;17.96;100.00;100691.59;5071235;28;20036;-60
2023/08/25 06:35:44;;;;;;;29.55;19.52;;;;;;;17.96;100.00;100698.75;5071407;28;20099;-67
2023/08/25 06:38:09;;;;;;;29.05;18.88;;;;;;;17.94;100.00;100693.47;5072601;28;20055;-61
2023/08/25 06:40:35;;;;;;;29.08;18.85;;;;;;;17.88;100.00;100683.78;5071946;28;20119;-62
2023/08/25 06:43:03;;;;;;;29.48;18.95;;;;;;;17.90;100.00;100678.41;5072645;28;20032;-62
2023/08/25 06:45:30;;;;;;;30.83;19.98;;;;;;;17.92;100.00;100671.22;5072366;28;20035;-64
2023/08/25 06:47:56;;;;;;;30.40;19.95;;;;;;;17.95;100.00;100692.53;5084157;28;20025;-62
2023/08/25 06:50:22;;;;;;;30.40;19.35;;;;;;;18.00;100.00;100679.00;5072296;28;20028;-64
2023/08/25 06:52:47;;;;;;;31.52;20.50;;;;;;;17.98;100.00;100665.69;5072702;28;20020;-62
2023/08/25 06:55:16;;;;;;;31.42;20.23;;;;;;;17.93;100.00;100663.16;5072334;28;20479;-61
2023/08/25 06:57:41;;;;;;;30.88;21.48;;;;;;;17.91;100.00;100662.34;5072229;28;20402;-64
2023/08/25 07:00:07;;;;;;;32.70;22.65;;;;;;;17.89;100.00;100634.72;5072269;28;20036;-65
2023/08/25 07:02:32;;;;;;;34.88;24.45;;;;;;;17.89;100.00;100607.09;5071885;28;20068;-62
2023/08/25 07:04:57;;;;;;;35.50;24.40;;;;;;;17.86;100.00;100607.19;5072397;28;20570;-60
2023/08/25 07:07:26;;;;;;;34.63;23.30;;;;;;;17.83;100.00;100628.69;5072490;28;20029;-64
2023/08/25 07:09:53;;;;;;;34.08;23.10;;;;;;;17.80;100.00;100635.00;5072177;28;20107;-62
2023/08/25 07:12:18;;;;;;;34.00;24.00;;;;;;;17.72;100.00;100637.00;5070966;28;20441;-63
2023/08/25 07:14:44;;;;;;;32.35;22.95;;;;;;;17.74;100.00;100627.16;5071838;28;20050;-63
2023/08/25 07:17:09;;;;;;;33.40;23.67;;;;;;;17.71;100.00;100613.88;5072210;28;20036;-64
2023/08/25 07:19:34;;;;;;;34.47;23.50;;;;;;;17.66;100.00;100614.00;5071909;28;20115;-65
2023/08/25 07:22:00;;;;;;;33.55;23.60;;;;;;;17.62;100.00;100638.19;5072108;28;20403;-64
2023/08/25 07:24:25;;;;;;;34.30;23.85;;;;;;;17.54;100.00;100690.03;5072264;28;20407;-61
2023/08/25 07:26:50;;;;;;;35.67;23.52;;;;;;;17.49;100.00;100757.88;5071591;28;20029;-69
2023/08/25 07:29:16;;;;;;;42.17;24.63;;;;;;;17.47;100.00;100792.66;5068642;28;20036;-67
2023/08/25 07:31:41;;;;;;;55.33;28.20;;;;;;;17.50;100.00;100714.22;5072006;28;20031;-62
2023/08/25 07:34:06;;;;;;;65.93;29.95;;;;;;;17.61;100.00;100666.72;5073288;28;20037;-63
2023/08/25 07:36:32;;;;;;;47.60;29.08;;;;;;;17.62;100.00;100651.53;5075709;28;20021;-65
2023/08/25 07:38:57;;;;;;;54.80;29.77;;;;;;;17.69;100.00;100685.19;5075410;28;20032;-67
2023/08/25 07:41:23;;;;;;;45.83;26.98;;;;;;;17.56;100.00;100711.38;5075706;28;20054;-65
2023/08/25 07:43:48;;;;;;;45.92;26.58;;;;;;;17.63;100.00;100704.09;5075554;28;20025;-66
2023/08/25 07:46:14;;;;;;;48.97;27.60;;;;;;;17.66;100.00;100706.66;5076088;28;20039;-63
2023/08/25 07:48:40;;;;;;;47.60;27.02;;;;;;;17.70;100.00;100714.56;5075816;28;20029;-65
2023/08/25 07:51:05;;;;;;;52.38;28.35;;;;;;;17.73;100.00;100706.44;5075357;28;20384;-65
2023/08/25 07:53:31;;;;;;;47.25;25.75;;;;;;;17.72;100.00;100701.16;5075330;28;20032;-64
2023/08/25 07:55:58;;;;;;;38.47;24.42;;;;;;;17.59;100.00;100705.94;5074111;28;20033;-70
2023/08/25 07:58:24;;;;;;;41.20;24.25;;;;;;;17.57;100.00;100705.13;5075665;28;20021;-67
2023/08/25 08:00:49;;;;;;;41.10;24.88;;;;;;;17.50;100.00;100696.38;5075399;28;20301;-65
2023/08/25 08:03:15;;;;;;;42.65;24.85;;;;;;;17.53;100.00;100706.13;5075474;28;20102;-68
2023/08/25 08:05:42;;;;;;;37.67;23.20;;;;;;;17.36;100.00;100703.91;5067338;28;20028;-63
2023/08/25 08:08:09;;;;;;;37.00;23.17;;;;;;;17.29;100.00;100708.53;5067308;28;20028;-62
2023/08/25 08:10:35;;;;;;;36.90;22.15;;;;;;;17.28;100.00;100721.91;5071861;28;20072;-61
2023/08/25 08:13:02;;;;;;;41.22;24.30;;;;;;;17.39;100.00;100717.19;5071760;28;20028;-62
2023/08/25 08:15:27;;;;;;;38.58;23.85;;;;;;;17.36;100.00;100709.25;5070822;28;20051;-63
2023/08/25 08:17:52;;;;;;;46.13;26.17;;;;;;;17.49;100.00;100715.13;5070813;28;20059;-62
2023/08/25 08:20:18;;;;;;;45.30;27.40;;;;;;;17.47;100.00;100703.63;5070713;28;20060;-61
2023/08/25 08:22:43;;;;;;;45.88;26.92;;;;;;;17.49;100.00;100693.75;5067869;28;20441;-62
2023/08/25 08:25:10;;;;;;;42.83;27.30;;;;;;;17.62;100.00;100683.63;5071173;28;20117;-63
2023/08/25 08:27:40;;;;;;;45.22;28.60;;;;;;;17.66;100.00;100687.97;5069401;28;20423;-62
2023/08/25 08:30:06;;;;;;;45.67;27.33;;;;;;;17.63;100.00;100693.41;5090691;28;20073;-64
2023/08/25 08:32:31;;;;;;;45.75;27.02;;;;;;;17.56;100.00;100690.91;5074730;28;20035;-63
2023/08/25 08:34:56;;;;;;;48.00;27.70;;;;;;;17.54;100.00;100675.81;5074545;28;20041;-64
2023/08/25 08:37:22;;;;;;;48.97;28.50;;;;;;;17.58;100.00;100688.19;5074665;28;20035;-68
2023/08/25 08:39:47;;;;;;;44.83;28.33;;;;;;;17.54;100.00;100715.91;5074581;28;20036;-68
2023/08/25 08:42:14;;;;;;;51.95;29.38;;;;;;;17.57;100.00;100719.34;5066952;28;20025;-68
2023/08/25 08:44:49;;;;;;;49.88;29.67;;;;;;;17.60;100.00;100718.41;5071863;28;20411;-63
2023/08/25 08:47:15;;;;;;;55.38;30.13;;;;;;;17.66;100.00;100710.22;5074021;28;20035;-65
2023/08/25 08:49:42;;;;;;;48.17;29.67;;;;;;;17.54;100.00;100705.22;5070625;28;20056;-65
2023/08/25 08:52:10;;;;;;;50.83;31.30;;;;;;;17.53;100.00;100706.13;5074256;28;20024;-61
2023/08/25 08:54:37;;;;;;;51.47;30.88;;;;;;;17.50;100.00;100722.25;5074621;28;20376;-61
2023/08/25 08:57:04;;;;;;;49.45;31.23;;;;;;;17.42;100.00;100722.44;5074478;28;20032;-61
2023/08/25 08:59:30;;;;;;;50.42;30.80;;;;;;;17.45;100.00;100719.69;5073817;28;20079;-62
2023/08/25 09:01:58;;;;;;;47.97;29.45;;;;;;;17.42;100.00;100728.66;5074468;28;20032;-61
2023/08/25 09:04:23;;;;;;;45.92;28.88;;;;;;;17.45;100.00;100713.47;5074200;28;20024;-67
2023/08/25 09:06:51;;;;;;;44.95;29.63;;;;;;;17.43;100.00;100703.69;5074075;28;20517;-66
2023/08/25 09:09:23;;;;;;;45.60;29.80;;;;;;;17.46;100.00;100691.16;5073991;28;20107;-69
2023/08/25 09:11:49;;;;;;;47.60;29.90;;;;;;;17.51;100.00;100705.28;5073664;28;20497;-69
2023/08/25 09:14:26;;;;;;;48.33;29.92;;;;;;;17.38;100.00;100728.78;5073997;28;20048;-66
2023/08/25 09:17:02;;;;;;;48.92;29.02;;;;;;;17.31;100.00;100733.38;5074036;28;20501;-69
2023/08/25 09:19:31;;;;;;;46.85;30.50;;;;;;;17.37;100.00;100700.31;5068141;28;20422;-70
2023/08/25 09:21:56;;;;;;;54.20;31.88;;;;;;;17.62;100.00;100679.16;5069821;28;20040;-63
2023/08/25 09:24:22;;;;;;;53.70;32.97;;;;;;;17.83;100.00;100666.97;5067828;28;20422;-66
2023/08/25 09:26:48;;;;;;;57.00;33.28;;;;;;;18.15;100.00;100689.28;5073811;28;20048;-70
2023/08/25 09:29:14;;;;;;;53.70;33.20;;;;;;;18.27;100.00;100696.06;5073631;28;20111;-70
2023/08/25 09:31:41;;;;;;;54.80;32.92;;;;;;;18.20;100.00;100705.19;5073791;28;20029;-64
2023/08/25 09:34:09;;;;;;;52.05;32.40;;;;;;;18.09;100.00;100717.06;5074465;28;20024;-62
2023/08/25 09:36:48;;;;;;;54.38;32.92;;;;;;;18.03;100.00;100714.59;5069359;28;20032;-64
2023/08/25 09:39:13;;;;;;;58.33;33.10;;;;;;;18.06;100.00;100709.13;5069560;28;20025;-64
2023/08/25 09:41:39;;;;;;;56.80;33.22;;;;;;;18.00;100.00;100697.72;5071555;28;20055;-63
2023/08/25 09:44:04;;;;;;;55.50;33.53;;;;;;;18.00;100.00;100709.31;5073228;28;20064;-63
2023/08/25 09:46:33;;;;;;;60.08;33.75;;;;;;;18.18;100.00;100702.56;5073349;28;20060;-63
2023/08/25 09:49:11;;;;;;;52.03;32.95;;;;;;;18.23;100.00;100703.31;5073268;28;20506;-63
2023/08/25 09:51:39;;;;;;;52.95;32.42;;;;;;;18.59;100.00;100711.13;5065430;28;20379;-62
2023/08/25 09:54:14;;;;;;;51.72;32.28;;;;;;;18.62;100.00;100705.69;5072614;28;20035;-64
2023/08/25 09:56:41;;;;;;;48.08;30.67;;;;;;;18.58;100.00;100719.19;5072698;28;20032;-67
2023/08/25 09:59:08;;;;;;;47.63;30.95;;;;;;;18.62;100.00;100705.69;5073201;28;20525;-68
2023/08/25 10:01:35;;;;;;;48.10;31.85;;;;;;;18.60;100.00;100707.53;5073074;28;20123;-67
2023/08/25 10:04:04;;;;;;;43.22;29.15;;;;;;;18.54;100.00;100712.22;5072826;28;20052;-63
2023/08/25 10:06:32;;;;;;;42.78;28.15;;;;;;;18.45;100.00;100710.69;5073093;28;20029;-67
2023/08/25 10:08:58;;;;;;;42.28;28.38;;;;;;;18.44;100.00;100706.25;5073048;28;20029;-67
2023/08/25 10:11:28;;;;;;;41.83;29.13;;;;;;;18.58;100.00;100713.84;5072781;28;20051;-67
2023/08/25 10:13:55;;;;;;;41.80;28.75;;;;;;;18.57;100.00;100709.44;5073232;28;20037;-68
2023/08/25 10:16:25;;;;;;;45.22;30.65;;;;;;;19.29;100.00;100715.13;5072884;28;20082;-67
2023/08/25 10:18:54;;;;;;;44.72;30.30;;;;;;;19.08;100.00;100716.75;5072739;28;20490;-67
2023/08/25 10:21:20;;;;;;;42.40;29.00;;;;;;;18.88;100.00;100728.09;5073255;28;20360;-67
2023/08/25 10:23:45;;;;;;;41.22;28.95;;;;;;;18.96;100.00;100719.81;5072888;28;20433;-66
2023/08/25 10:26:11;;;;;;;40.03;27.80;;;;;;;19.07;100.00;100706.94;5072794;28;20103;-65
2023/08/25 10:28:37;;;;;;;40.47;28.75;;;;;;;19.24;100.00;100718.94;5071728;28;20418;-65
2023/08/25 10:31:04;;;;;;;37.90;27.25;;;;;;;18.94;100.00;100724.34;5072796;28;20032;-68
2023/08/25 10:33:46;;;;;;;33.40;24.45;;;;;;;18.73;100.00;100717.88;5072723;28;20037;-68
2023/08/25 10:36:15;;;;;;;34.65;25.13;;;;;;;18.71;100.00;100715.25;5069046;28;20074;-64
2023/08/25 10:38:41;;;;;;;35.63;26.45;;;;;;;18.79;100.00;100718.53;5069270;28;20440;-67
2023/08/25 10:41:15;;;;;;;33.55;25.23;;;;;;;18.78;100.00;100723.94;5072561;28;20117;-65
2023/08/25 10:43:45;;;;;;;33.53;25.50;;;;;;;18.57;100.00;100730.84;5068672;28;20021;-67
2023/08/25 10:46:10;;;;;;;34.40;26.10;;;;;;;18.49;100.00;100735.53;5068646;28;20040;-62
2023/08/25 10:48:40;;;;;;;33.95;26.25;;;;;;;18.44;100.00;100749.06;5072761;28;20033;-68
2023/08/25 10:51:15;;;;;;;34.88;26.80;;;;;;;18.46;100.00;100737.41;5072494;28;20033;-66
2023/08/25 10:53:51;;;;;;;35.22;27.25;;;;;;;18.47;100.00;100733.78;5066301;28;20020;-64
2023/08/25 10:56:22;;;;;;;36.58;27.63;;;;;;;18.51;100.00;100722.97;5068949;28;20525;-63
2023/08/25 10:59:11;;;;;;;37.92;28.17;;;;;;;18.54;100.00;100721.09;5064319;28;20393;-64
2023/08/25 11:01:39;;;;;;;37.97;29.08;;;;;;;18.68;100.00;100714.44;5061250;28;20028;-64